Time;durP1;ratioP1;P1;durP2;ratioP2;P2;SDS_P1;SDS_P2;PMS_P1;PMS_P2;Temp;Humidity;BMP_temperature;BMP_pressure;BME280_temperature;BME280_humidity;BME280_pressure;Samples;Min_cycle;Max_cycle;Signal;HPM_P1;HPM_P2
2021/11/01 00:02:00;;;;;;;;;;;;;;;15.57;58.63;99381.31;4883722;28;98674;-57
2021/11/01 00:04:26;;;;;;;;;;;;;;;15.57;58.26;99375.88;4885216;28;98312;-65
2021/11/01 00:06:52;;;;;;;;;;;;;;;15.56;58.61;99369.66;4884185;28;105244;-65
2021/11/01 00:09:18;;;;;;;;;;;;;;;15.55;58.36;99376.19;4884794;28;99070;-65
2021/11/01 00:11:44;;;;;;;;;;;;;;;15.55;58.46;99367.22;4849047;28;128002;-58
2021/11/01 00:14:10;;;;;;;;;;;;;;;15.54;58.72;99366.44;4865912;28;127915;-57
2021/11/01 00:16:36;;;;;;;;;;;;;;;15.53;58.75;99367.56;4865777;28;116934;-65
2021/11/01 00:19:02;;;;;;;;;;;;;;;15.52;58.60;99352.38;4847414;28;128578;-57
2021/11/01 00:21:28;;;;;;;;;;;;;;;15.52;58.91;99348.88;4866079;28;99113;-65
2021/11/01 00:23:54;;;;;;;;;;;;;;;15.51;58.54;99348.06;4866254;28;98034;-58
2021/11/01 00:26:20;;;;;;;;;;;;;;;15.51;59.08;99350.00;4880137;28;111941;-65
2021/11/01 00:28:48;;;;;;;;;;;;;;;15.50;59.26;99348.41;4879985;28;98506;-57
2021/11/01 00:31:14;;;;;;;;;;;;;;;15.49;58.89;99341.41;4885324;28;98622;-65
2021/11/01 00:33:40;;;;;;;;;;;;;;;15.49;59.04;99341.41;4884647;28;118421;-57
2021/11/01 00:36:06;;;;;;;;;;;;;;;15.46;58.77;99335.47;4864843;28;109567;-58
2021/11/01 00:38:32;;;;;;;;;;;;;;;15.46;58.80;99334.69;4865820;28;98418;-58
2021/11/01 00:40:58;;;;;;;;;;;;;;;15.45;58.78;99335.81;4882424;28;120688;-57
2021/11/01 00:43:24;;;;;;;;;;;;;;;15.44;58.88;99331.50;4883675;28;127329;-65
2021/11/01 00:45:50;;;;;;;;;;;;;;;15.43;59.05;99333.41;4884210;28;110503;-58
2021/11/01 00:48:17;;;;;;;;;;;;;;;15.43;59.12;99341.56;4883800;28;114939;-57
2021/11/01 00:50:44;;;;;;;;;;;;;;;15.43;59.28;99338.06;4884218;28;98157;-65
2021/11/01 00:53:10;;;;;;;;;;;;;;;15.42;59.04;99336.47;4884169;28;98884;-57
2021/11/01 00:55:37;;;;;;;;;;;;;;;15.41;59.09;99340.31;4878507;28;98054;-64
2021/11/01 00:58:06;;;;;;;;;;;;;;;15.40;59.17;99333.28;4884401;28;99019;-65
2021/11/01 01:00:32;;;;;;;;;;;;;;;15.40;58.95;99333.28;4876518;28;99640;-57
2021/11/01 01:02:58;;;;;;;;;;;;;;;15.39;59.35;99329.75;4865414;28;98313;-57
2021/11/01 01:05:24;;;;;;;;;;;;;;;15.39;59.20;99332.47;4865093;28;98066;-65
2021/11/01 01:07:50;;;;;;;;;;;;;;;15.39;59.13;99324.34;4864422;28;126400;-57
2021/11/01 01:10:19;;;;;;;;;;;;;;;15.39;59.26;99326.25;4864423;28;127777;-58
2021/11/01 01:12:45;;;;;;;;;;;;;;;15.37;59.52;99321.16;4866405;28;127682;-57
2021/11/01 01:15:16;;;;;;;;;;;;;;;15.35;59.10;99314.47;4883442;28;118140;-64
2021/11/01 01:17:43;;;;;;;;;;;;;;;15.36;59.45;99316.84;4866386;28;98881;-57
2021/11/01 01:20:12;;;;;;;;;;;;;;;15.36;59.38;99316.84;4865085;28;99591;-64
2021/11/01 01:22:39;;;;;;;;;;;;;;;15.34;59.54;99312.88;4864503;28;98090;-65
2021/11/01 01:27:45;;;;;;;;;;;;;;;15.32;59.42;99306.97;4847798;28;98182;-57
2021/11/01 01:30:11;;;;;;;;;;;;;;;15.31;59.51;99298.03;4864774;28;98619;-65
2021/11/01 01:32:38;;;;;;;;;;;;;;;15.29;59.67;99291.31;4865190;28;98742;-65
2021/11/01 01:35:04;;;;;;;;;;;;;;;15.29;59.45;99294.84;4865239;28;98051;-57
2021/11/01 01:37:30;;;;;;;;;;;;;;;15.28;59.58;99293.25;4865895;28;121226;-57
2021/11/01 01:39:56;;;;;;;;;;;;;;;15.27;59.74;99285.44;4878424;28;115312;-57
2021/11/01 01:42:22;;;;;;;;;;;;;;;15.26;59.78;99292.78;4870003;28;106771;-57
2021/11/01 01:44:48;;;;;;;;;;;;;;;15.25;59.43;99285.78;4864437;28;106870;-57
2021/11/01 01:47:13;;;;;;;;;;;;;;;15.23;59.48;99285.28;4863666;28;121492;-65
2021/11/01 01:49:39;;;;;;;;;;;;;;;15.23;59.50;99288.00;4863151;28;127886;-57
2021/11/01 01:52:06;;;;;;;;;;;;;;;15.23;59.79;99282.56;4863874;28;128383;-57
2021/11/01 01:54:31;;;;;;;;;;;;;;;15.21;59.58;99279.41;4864292;28;98106;-65
2021/11/01 01:56:58;;;;;;;;;;;;;;;15.20;59.76;99280.50;4864582;28;115051;-65
2021/11/01 01:59:24;;;;;;;;;;;;;;;15.18;59.64;99275.41;4864340;28;98206;-65
2021/11/01 02:01:50;;;;;;;;;;;;;;;15.18;59.88;99272.69;4864106;28;127448;-59
2021/11/01 02:04:23;;;;;;;;;;;;;;;15.18;59.64;99271.91;4864721;28;98117;-65
2021/11/01 02:06:52;;;;;;;;;;;;;;;15.17;59.69;99270.31;4844712;28;99242;-58
2021/11/01 02:09:20;;;;;;;;;;;;;;;15.16;60.06;99271.41;4865182;28;98603;-64
2021/11/01 02:12:02;;;;;;;;;;;;;;;15.16;60.06;99274.13;4864779;28;97869;-65
2021/11/01 02:14:31;;;;;;;;;;;;;;;15.15;59.79;99267.13;4848051;28;108426;-57
2021/11/01 02:17:00;;;;;;;;;;;;;;;15.15;59.68;99270.63;4830763;28;103652;-57
2021/11/01 02:19:30;;;;;;;;;;;;;;;15.14;60.11;99273.69;4848033;28;98471;-65
2021/11/01 02:21:59;;;;;;;;;;;;;;;15.13;60.03;99272.88;4865258;28;100597;-65
2021/11/01 02:24:42;;;;;;;;;;;;;;;15.13;60.05;99263.94;4884021;28;97730;-57
2021/11/01 02:27:11;;;;;;;;;;;;;;;15.13;59.64;99269.34;4866631;28;99212;-65
2021/11/01 02:29:40;;;;;;;;;;;;;;;15.11;60.03;99269.69;4880968;28;98450;-65
2021/11/01 02:32:06;;;;;;;;;;;;;;;15.12;59.82;99267.78;4881725;28;98599;-65
2021/11/01 02:34:32;;;;;;;;;;;;;;;15.12;60.13;99267.78;4865645;28;97979;-57
2021/11/01 02:36:59;;;;;;;;;;;;;;;15.11;59.86;99261.56;4863771;28;110679;-65
2021/11/01 02:39:26;;;;;;;;;;;;;;;15.10;59.89;99264.59;4872555;28;98371;-57
2021/11/01 02:41:53;;;;;;;;;;;;;;;15.11;59.82;99260.75;4863762;28;98322;-64
2021/11/01 02:44:22;;;;;;;;;;;;;;;15.10;59.89;99257.25;4869299;28;117428;-65
2021/11/01 02:46:47;;;;;;;;;;;;;;;15.11;59.89;99250.69;4882665;28;98242;-64
2021/11/01 02:49:13;;;;;;;;;;;;;;;15.10;59.91;99245.59;4883292;28;98665;-64
2021/11/01 02:51:42;;;;;;;;;;;;;;;15.09;60.18;99246.72;4876107;28;125926;-65
2021/11/01 02:54:10;;;;;;;;;;;;;;;15.10;60.02;99248.31;4864184;28;97858;-57
2021/11/01 02:56:35;;;;;;;;;;;;;;;15.09;60.11;99241.28;4878311;28;99577;-57
2021/11/01 02:59:02;;;;;;;;;;;;;;;15.09;60.04;99247.53;4882475;28;128067;-57
2021/11/01 03:01:30;;;;;;;;;;;;;;;15.08;59.90;99248.63;4879973;28;98525;-65
2021/11/01 03:03:56;;;;;;;;;;;;;;;15.09;60.18;99239.38;4881787;28;98136;-59
2021/11/01 03:06:24;;;;;;;;;;;;;;;15.08;60.06;99245.13;4871624;28;98198;-57
2021/11/01 03:08:51;;;;;;;;;;;;;;;15.08;60.20;99240.47;4881354;28;104206;-58
2021/11/01 03:11:17;;;;;;;;;;;;;;;15.08;60.13;99243.19;4882326;28;97807;-58
2021/11/01 03:13:43;;;;;;;;;;;;;;;15.07;60.18;99243.53;4881690;28;98013;-65
2021/11/01 03:16:09;;;;;;;;;;;;;;;15.06;60.30;99240.03;4863824;28;118758;-65
2021/11/01 03:18:43;;;;;;;;;;;;;;;15.06;60.32;99236.53;4864704;28;98852;-65
2021/11/01 03:21:10;;;;;;;;;;;;;;;15.05;59.96;99240.34;4865371;28;99644;-57
2021/11/01 03:23:36;;;;;;;;;;;;;;;15.05;60.08;99246.59;4862173;28;98342;-63
2021/11/01 03:26:04;;;;;;;;;;;;;;;15.05;60.08;99241.16;4860389;28;127360;-64
2021/11/01 03:28:30;;;;;;;;;;;;;;;15.06;60.32;99244.66;4862163;28;98437;-57
2021/11/01 03:30:57;;;;;;;;;;;;;;;15.06;60.06;99245.47;4861106;28;98358;-57
2021/11/01 03:33:24;;;;;;;;;;;;;;;15.06;60.29;99236.53;4862116;28;97862;-57
2021/11/01 03:35:50;;;;;;;;;;;;;;;15.04;60.37;99231.41;4880775;28;98511;-64
2021/11/01 03:38:16;;;;;;;;;;;;;;;15.05;60.24;99230.31;4879786;28;127175;-66
2021/11/01 03:40:46;;;;;;;;;;;;;;;15.03;60.03;99239.88;4872963;28;98991;-57
2021/11/01 03:43:16;;;;;;;;;;;;;;;15.03;60.21;99240.69;4861965;28;98064;-57
2021/11/01 03:45:42;;;;;;;;;;;;;;;15.04;60.41;99241.47;4862138;28;98780;-57
2021/11/01 03:48:09;;;;;;;;;;;;;;;15.03;60.35;99243.38;4863614;28;98445;-57
2021/11/01 03:50:58;;;;;;;;;;;;;;;15.03;60.12;99243.38;4871308;28;98287;-57
2021/11/01 03:53:21;;;;;;;;;;;;;;;15.03;60.43;99250.75;4882798;28;98044;-65
2021/11/01 03:55:47;;;;;;;;;;;;;;;15.02;60.32;99244.53;4874693;28;115669;-57
2021/11/01 03:58:13;;;;;;;;;;;;;;;15.01;60.09;99250.25;4876385;28;128621;-57
2021/11/01 04:00:39;;;;;;;;;;;;;;;15.01;60.37;99242.91;4878269;28;124220;-64
2021/11/01 04:03:05;;;;;;;;;;;;;;;15.00;60.47;99245.97;4844721;28;118140;-64
2021/11/01 04:05:31;;;;;;;;;;;;;;;15.00;60.45;99252.19;4870348;28;128580;-65
2021/11/01 04:07:57;;;;;;;;;;;;;;;15.01;60.36;99261.09;4880336;28;98938;-57
2021/11/01 04:10:23;;;;;;;;;;;;;;;15.00;60.39;99256.81;4878037;28;127124;-65
2021/11/01 04:12:50;;;;;;;;;;;;;;;15.00;60.15;99248.66;4883546;28;97696;-65
2021/11/01 04:15:21;;;;;;;;;;;;;;;14.99;60.21;99247.88;4883294;28;99890;-57
2021/11/01 04:18:04;;;;;;;;;;;;;;;14.98;60.28;99244.38;4883651;28;98501;-57
2021/11/01 04:20:39;;;;;;;;;;;;;;;14.98;60.30;99247.09;4885777;28;98046;-57
2021/11/01 04:23:08;;;;;;;;;;;;;;;14.97;60.37;99247.41;4885836;28;98038;-65
2021/11/01 04:25:34;;;;;;;;;;;;;;;14.98;60.21;99247.09;4885300;28;99230;-65
2021/11/01 04:28:01;;;;;;;;;;;;;;;14.97;60.14;99250.94;4884609;28;98699;-65
2021/11/01 04:30:32;;;;;;;;;;;;;;;14.97;60.47;99259.06;4880805;28;98511;-57
2021/11/01 04:33:02;;;;;;;;;;;;;;;14.95;60.41;99253.16;4866150;28;97933;-57
2021/11/01 04:35:34;;;;;;;;;;;;;;;14.95;60.39;99252.38;4872978;28;99077;-57
2021/11/01 04:38:23;;;;;;;;;;;;;;;14.95;60.45;99255.88;4885282;28;98719;-57
2021/11/01 04:41:01;;;;;;;;;;;;;;;14.94;60.31;99267.84;4866933;28;97982;-66
2021/11/01 04:54:10;;;;;;;;;;;;;;;14.94;60.59;99262.44;4882897;28;98146;-65
2021/11/01 04:56:36;;;;;;;;;;;;;;;14.93;60.27;99260.84;4866775;28;98858;-57
2021/11/01 04:59:02;;;;;;;;;;;;;;;14.94;60.58;99264.34;4865785;28;127819;-58
2021/11/01 05:01:36;;;;;;;;;;;;;;;14.94;60.39;99256.22;4882862;28;97936;-64
2021/11/01 05:04:06;;;;;;;;;;;;;;;14.92;60.62;99258.44;4885446;28;97907;-58
2021/11/01 05:06:32;;;;;;;;;;;;;;;14.94;60.56;99265.13;4884002;28;98621;-65
2021/11/01 05:09:06;;;;;;;;;;;;;;;14.94;60.11;99267.06;4867476;28;98537;-65
2021/11/01 05:11:35;;;;;;;;;;;;;;;14.93;60.65;99263.56;4883561;28;97936;-65
2021/11/01 05:14:02;;;;;;;;;;;;;;;14.94;60.16;99269.78;4883876;28;97971;-57
2021/11/01 05:22:03;;;;;;;;;;;;;;;14.93;60.32;99268.16;4859617;28;98174;-57
2021/11/01 05:24:35;;;;;;;;;;;;;;;14.92;60.62;99266.56;4865674;28;97848;-65
2021/11/01 05:29:29;;;;;;;;;;;;;;;14.93;60.59;99273.59;4864907;28;99474;-65
2021/11/01 05:32:07;;;;;;;;;;;;;;;14.92;60.53;99267.38;4883872;28;97713;-64
2021/11/01 05:34:33;;;;;;;;;;;;;;;14.92;60.50;99266.56;4884266;28;97901;-65
2021/11/01 05:36:59;;;;;;;;;;;;;;;14.92;60.59;99266.56;4883548;28;100339;-65
2021/11/01 05:39:25;;;;;;;;;;;;;;;14.93;60.27;99279.00;4881224;28;99360;-65
2021/11/01 05:41:51;;;;;;;;;;;;;;;14.92;60.65;99278.22;4865015;28;98170;-64
2021/11/01 05:44:18;;;;;;;;;;;;;;;14.91;60.84;99278.56;4863965;28;116171;-65
2021/11/01 05:46:49;;;;;;;;;;;;;;;14.91;60.59;99281.28;4863972;28;98330;-64
2021/11/01 05:49:17;;;;;;;;;;;;;;;14.91;60.41;99282.06;4864956;28;98143;-65
2021/11/01 05:51:43;;;;;;;;;;;;;;;14.92;60.85;99291.00;4862626;28;98126;-65
2021/11/01 05:54:16;;;;;;;;;;;;;;;14.91;60.91;99290.19;4883839;28;117024;-64
2021/11/01 06:02:36;;;;;;;;;;;;;;;14.91;60.57;99292.91;4898917;28;97919;-63
2021/11/01 06:15:35;;;;;;;;;;;;;;;14.97;60.53;99301.66;4893422;28;98173;-64
2021/11/01 06:18:01;;;;;;;;;;;;;;;14.98;60.47;99303.28;4898236;28;128445;-64
2021/11/01 06:20:27;;;;;;;;;;;;;;;15.01;60.60;99308.03;4883778;28;114509;-64
2021/11/01 06:22:53;;;;;;;;;;;;;;;15.03;60.65;99307.72;4845787;28;128040;-65
2021/11/01 06:25:19;;;;;;;;;;;;;;;15.07;60.70;99317.59;4864501;28;98185;-65
2021/11/01 06:27:47;;;;;;;;;;;;;;;15.13;60.62;99318.22;4863716;28;98421;-65
2021/11/01 06:41:01;;;;;;;;;;;;;;;15.41;60.13;99351.97;4866540;28;99169;-65
2021/11/01 06:43:34;;;;;;;;;;;;;;;15.43;59.94;99355.13;4882668;28;98001;-65
2021/11/01 06:51:32;;;;;;;;;;;;;;;15.49;59.93;99358.50;4880060;28;98028;-65
2021/11/01 06:54:21;;;;;;;;;;;;;;;15.49;59.91;99363.13;4882375;28;97830;-65
2021/11/01 07:21:54;;;;;;;;;;;;;;;15.66;60.02;99373.94;4825639;28;98072;-65
2021/11/01 07:24:45;;;;;;;;;;;;;;;15.80;59.72;99381.84;4862788;28;98629;-65
2021/11/01 07:38:46;;;;;;;;;;;;;;;16.11;59.45;99406.78;4881324;28;98113;-65
2021/11/01 08:22:41;;;;;;;;;;;;;;;16.34;59.77;99461.63;4838671;28;97953;-65
2021/11/01 08:25:45;;;;;;;;;;;;;;;16.33;59.89;99470.13;4880424;28;98064;-57
2021/11/01 08:28:40;;;;;;;;;;;;;;;16.31;60.04;99477.78;4884887;28;99744;-64
2021/11/01 08:36:57;;;;;;;;;;;;;;;16.24;60.17;99491.13;4844764;28;98025;-65
2021/11/01 08:48:00;;;;;;;;;;;;;;;16.19;60.33;99503.78;4883330;28;98039;-65
2021/11/01 08:50:39;;;;;;;;;;;;;;;16.20;60.17;99516.25;4865765;28;98653;-64
2021/11/01 09:20:16;;;;;;;;;;;;;;;16.84;59.49;99517.97;4851991;28;97963;-57
2021/11/01 09:36:25;;;;;;;;;;;;;;;17.48;58.58;99526.88;4862748;28;98052;-58
2021/11/01 09:41:22;;;;;;;;;;;;;;;17.33;58.77;99537.28;4869113;28;97797;-63
2021/11/01 09:43:51;;;;;;;;;;;;;;;17.25;58.95;99540.06;4864508;28;98091;-63
2021/11/01 09:46:17;;;;;;;;;;;;;;;17.16;58.76;99535.47;4865281;28;98276;-58
2021/11/01 09:48:43;;;;;;;;;;;;;;;17.12;58.88;99537.28;4878179;28;98427;-58
2021/11/01 09:51:09;;;;;;;;;;;;;;;17.07;58.84;99548.38;4883318;28;98092;-65
2021/11/01 09:53:47;;;;;;;;;;;;;;;17.04;58.82;99546.31;4883196;28;99302;-58
2021/11/01 09:56:19;;;;;;;;;;;;;;;17.04;58.80;99549.03;4870793;28;98408;-65
2021/11/01 10:01:31;;;;;;;;;;;;;;;17.10;58.82;99542.28;4850777;28;98069;-58
2021/11/01 10:03:57;;;;;;;;;;;;;;;17.12;58.82;99544.66;4847406;28;98572;-58
2021/11/01 10:06:25;;;;;;;;;;;;;;;17.17;58.63;99531.66;4863757;28;128630;-57
2021/11/01 10:08:59;;;;;;;;;;;;;;;17.26;58.58;99544.38;4846281;28;121285;-66
2021/11/01 10:11:30;;;;;;;;;;;;;;;17.30;58.74;99540.66;4866949;28;111757;-66
2021/11/01 10:14:01;;;;;;;;;;;;;;;17.29;58.97;99535.53;4864688;28;99433;-65
2021/11/01 10:19:32;;;;;;;;;;;;;;;17.27;58.95;99546.75;4861096;28;98272;-59
2021/11/01 10:22:01;;;;;;;;;;;;;;;17.28;59.22;99542.13;4864097;28;97930;-58
2021/11/01 10:24:38;;;;;;;;;;;;;;;17.28;59.31;99542.91;4864069;28;98172;-65
2021/11/01 10:27:12;;;;;;;;;;;;;;;17.29;59.47;99540.97;4866560;28;98532;-58
2021/11/01 10:30:08;;;;;;;;;;;;;;;17.26;59.69;99536.22;4874898;28;97876;-66
2021/11/01 10:32:48;;;;;;;;;;;;;;;17.25;59.83;99540.06;4880385;28;97843;-65
2021/11/01 10:35:21;;;;;;;;;;;;;;;17.24;59.82;99541.19;4881701;28;98082;-59
2021/11/01 10:40:37;;;;;;;;;;;;;;;17.26;59.78;99526.13;4877762;28;97749;-58
2021/11/01 10:43:42;;;;;;;;;;;;;;;17.30;59.89;99526.25;4873045;28;97922;-58
2021/11/01 10:46:27;;;;;;;;;;;;;;;17.36;59.80;99525.69;4867286;28;98137;-66
2021/11/01 11:14:33;;;;;;;;;;;;;;;17.69;60.30;99515.94;4885665;28;98372;-65
2021/11/01 11:17:23;;;;;;;;;;;;;;;17.69;60.37;99515.94;4880822;28;97789;-58
2021/11/01 11:38:38;;;;;;;;;;;;;;;17.97;60.10;99516.13;4868029;28;98053;-65
2021/11/01 11:43:49;;;;;;;;;;;;;;;18.18;59.95;99511.34;4864675;28;98261;-57
2021/11/01 11:49:18;;;;;;;;;;;;;;;18.18;60.37;99524.19;4864142;28;97916;-64
2021/11/01 11:52:00;;;;;;;;;;;;;;;18.14;60.66;99522.13;4866176;28;99116;-65
2021/11/01 11:54:37;;;;;;;;;;;;;;;18.12;60.72;99518.97;4866882;28;98311;-59
2021/11/01 11:57:04;;;;;;;;;;;;;;;18.10;60.52;99515.78;4870273;28;98764;-57
2021/11/01 11:59:39;;;;;;;;;;;;;;;18.10;60.62;99513.03;4885342;28;97894;-58
2021/11/01 12:02:07;;;;;;;;;;;;;;;18.07;60.93;99519.16;4884762;28;122762;-58
2021/11/01 12:04:36;;;;;;;;;;;;;;;18.03;61.03;99522.91;4884599;28;98844;-65
2021/11/01 12:07:03;;;;;;;;;;;;;;;18.00;61.09;99518.13;4885128;28;98363;-58
2021/11/01 12:09:46;;;;;;;;;;;;;;;17.96;61.25;99517.22;4878610;28;98255;-65
2021/11/01 12:17:30;;;;;;;;;;;;;;;17.71;61.68;99536.25;4880305;28;98238;-58
2021/11/01 12:20:08;;;;;;;;;;;;;;;17.66;61.82;99536.47;4884378;28;97986;-57
2021/11/01 12:22:37;;;;;;;;;;;;;;;17.63;61.69;99523.50;4885023;28;109164;-65
2021/11/01 12:25:06;;;;;;;;;;;;;;;17.60;61.87;99532.34;4873050;28;98123;-65
2021/11/01 12:27:34;;;;;;;;;;;;;;;17.57;61.81;99530.31;4866056;28;97855;-58
2021/11/01 12:30:05;;;;;;;;;;;;;;;17.54;61.80;99526.31;4865818;28;98268;-58
2021/11/01 12:32:31;;;;;;;;;;;;;;;17.54;61.88;99520.09;4865922;28;98621;-65
2021/11/01 12:35:04;;;;;;;;;;;;;;;17.53;61.92;99515.78;4865482;28;126711;-66
2021/11/01 12:37:50;;;;;;;;;;;;;;;17.52;61.88;99511.44;4865355;28;98321;-58
2021/11/01 12:59:14;;;;;;;;;;;;;;;17.22;62.46;99516.25;4841697;28;98344;-66
2021/11/01 13:01:49;;;;;;;;;;;;;;;17.18;62.72;99516.91;4846682;28;98129;-58
2021/11/01 13:04:32;;;;;;;;;;;;;;;17.15;62.63;99522.22;4853748;28;99147;-58
2021/11/01 13:07:14;;;;;;;;;;;;;;;17.12;62.63;99514.69;4849586;28;98164;-65
2021/11/01 13:09:44;;;;;;;;;;;;;;;17.13;62.54;99513.56;4847277;28;98435;-66
2021/11/01 13:12:33;;;;;;;;;;;;;;;17.11;62.78;99513.13;4865936;28;98200;-58
2021/11/01 13:17:48;;;;;;;;;;;;;;;17.07;62.84;99510.25;4864847;28;98475;-65
2021/11/01 13:18:10;;;;;;;;;;;;;;;17.03;62.82;99506.63;4851329;28;99449;-65
2021/11/01 13:20:41;;;;;;;;;;;;;;;17.00;63.05;99506.47;4843902;28;98620;-65
2021/11/01 13:23:08;;;;;;;;;;;;;;;16.97;62.95;99499.75;4846959;28;97979;-65
2021/11/01 13:25:42;;;;;;;;;;;;;;;16.93;63.06;99496.13;4863212;28;99091;-66
2021/11/01 13:38:52;;;;;;;;;;;;;;;16.90;63.09;99494.88;4880026;28;98035;-66
2021/11/01 13:41:26;;;;;;;;;;;;;;;16.89;63.14;99501.44;4864406;28;97886;-66
2021/11/01 13:43:52;;;;;;;;;;;;;;;16.88;63.01;99494.41;4864990;28;97766;-66
2021/11/01 13:46:25;;;;;;;;;;;;;;;16.88;63.19;99488.16;4865783;28;112823;-65
2021/11/01 13:48:56;;;;;;;;;;;;;;;16.87;63.22;99492.81;4864222;28;120360;-65
2021/11/01 13:51:22;;;;;;;;;;;;;;;16.87;63.08;99492.81;4846699;28;97893;-66
2021/11/01 13:54:26;;;;;;;;;;;;;;;16.86;63.16;99491.22;4869749;28;98066;-65
2021/11/01 13:56:42;;;;;;;;;;;;;;;16.83;63.33;99494.59;4881053;28;98692;-65
2021/11/01 13:59:44;;;;;;;;;;;;;;;16.81;63.29;99496.06;4876505;28;98690;-65
2021/11/01 14:13:18;;;;;;;;;;;;;;;16.70;63.55;99506.50;4850250;28;98290;-65
2021/11/01 14:16:11;;;;;;;;;;;;;;;16.68;63.64;99503.34;4866064;28;98416;-65
2021/11/01 14:29:19;;;;;;;;;;;;;;;16.57;63.88;99492.03;4862184;28;98027;-58
2021/11/01 15:12:35;;;;;;;;;;;;;;;16.20;64.46;99510.81;4882600;28;97819;-58
2021/11/01 15:15:03;;;;;;;;;;;;;;;16.19;64.53;99519.28;4866760;28;99186;-58
2021/11/01 15:23:03;;;;;;;;;;;;;;;16.13;64.46;99518.69;4880994;28;98272;-58
2021/11/01 15:28:29;;;;;;;;;;;;;;;16.10;64.71;99523.97;4881669;28;97828;-58
2021/11/01 16:17:44;;;;;;;;;;;;;;;15.86;64.95;99552.50;4871026;28;98052;-65
2021/11/01 16:20:10;;;;;;;;;;;;;;;15.85;65.03;99550.94;4860432;28;98916;-65
2021/11/01 16:22:39;;;;;;;;;;;;;;;15.84;65.18;99549.34;4870659;28;98319;-65
2021/11/01 16:25:05;;;;;;;;;;;;;;;15.83;65.14;99553.16;4868260;28;98994;-57
2021/11/01 16:27:33;;;;;;;;;;;;;;;15.83;65.21;99549.63;4866340;28;98545;-65
2021/11/01 16:30:11;;;;;;;;;;;;;;;15.81;65.04;99549.19;4865873;28;98073;-58
2021/11/01 16:32:41;;;;;;;;;;;;;;;15.80;65.10;99551.09;4865669;28;98893;-64
2021/11/01 16:35:08;;;;;;;;;;;;;;;15.80;65.13;99550.28;4850491;28;98131;-65
2021/11/01 16:37:40;;;;;;;;;;;;;;;15.79;65.16;99549.50;4848068;28;98216;-57
2021/11/01 16:40:13;;;;;;;;;;;;;;;15.77;65.05;99542.81;4880165;28;98542;-66
2021/11/01 16:42:41;;;;;;;;;;;;;;;15.77;65.09;99550.94;4867398;28;99581;-65
2021/11/01 16:45:16;;;;;;;;;;;;;;;15.75;65.43;99545.81;4866261;28;98133;-57
2021/11/01 16:47:43;;;;;;;;;;;;;;;15.75;65.26;99545.81;4875080;28;99305;-65
2021/11/01 16:50:10;;;;;;;;;;;;;;;15.75;65.33;99556.69;4865369;28;99290;-57
2021/11/01 16:52:37;;;;;;;;;;;;;;;15.73;65.11;99569.03;4865379;28;99177;-57
2021/11/01 16:55:09;;;;;;;;;;;;;;;15.74;65.09;99563.25;4865847;28;97758;-57
2021/11/01 16:57:42;;;;;;;;;;;;;;;15.72;65.20;99570.94;4883381;28;98609;-58
2021/11/01 17:21:36;;;;;;;;;;;;;;;15.65;65.32;99562.47;4852640;28;98018;-57
2021/11/01 17:24:17;;;;;;;;;;;;;;;15.65;65.31;99567.91;4884443;28;97964;-58
2021/11/01 17:30:41;;;;;;;;;;;;;;;15.63;65.25;99575.53;4864385;28;98142;-58
2021/11/01 17:35:43;;;;;;;;;;;;;;;15.62;65.63;99579.38;4871968;28;98325;-58
2021/11/01 18:41:09;;;;;;;;;;;;;;;15.45;65.78;99562.00;4845059;28;97787;-66
2021/11/01 18:46:33;;;;;;;;;;;;;;;15.44;65.86;99562.31;4865340;28;98383;-58
2021/11/01 18:51:53;;;;;;;;;;;;;;;15.43;65.55;99555.28;4867658;28;98230;-58
2021/11/01 18:54:22;;;;;;;;;;;;;;;15.41;65.74;99563.75;4875140;28;98219;-59
2021/11/01 18:56:57;;;;;;;;;;;;;;;15.42;65.57;99559.13;4846787;28;98221;-59
2021/11/01 18:59:25;;;;;;;;;;;;;;;15.41;65.81;99561.03;4867187;28;98202;-58
2021/11/01 19:01:59;;;;;;;;;;;;;;;15.40;65.71;99550.50;4865049;28;98077;-66
2021/11/01 19:04:29;;;;;;;;;;;;;;;15.41;65.70;99557.53;4878435;28;97828;-58
2021/11/01 19:07:20;;;;;;;;;;;;;;;15.39;65.71;99554.34;4846360;28;99169;-58
2021/11/01 19:13:03;;;;;;;;;;;;;;;15.39;65.95;99557.84;4862576;28;116276;-66
2021/11/01 20:02:48;;;;;;;;;;;;;;;15.37;65.97;99562.00;4880237;28;97856;-58
2021/11/01 20:05:11;;;;;;;;;;;;;;;15.25;66.09;99537.41;4880780;28;97827;-66
2021/11/01 21:25:19;;;;;;;;;;;;;;;15.14;65.87;99512.53;4866105;28;99885;-58
2021/11/01 21:27:45;;;;;;;;;;;;;;;15.14;65.91;99515.25;4873859;28;98150;-66
2021/11/01 21:30:12;;;;;;;;;;;;;;;15.13;66.17;99509.00;4883200;28;98917;-66
2021/11/01 21:32:39;;;;;;;;;;;;;;;15.13;65.95;99505.47;4883709;28;99116;-65
2021/11/01 21:35:09;;;;;;;;;;;;;;;15.13;66.23;99513.63;4879257;28;98147;-58
2021/11/01 21:37:35;;;;;;;;;;;;;;;15.12;65.97;99509.31;4865743;28;97922;-66
2021/11/01 21:40:02;;;;;;;;;;;;;;;15.12;65.76;99509.31;4864238;28;98351;-59
2021/11/01 21:42:28;;;;;;;;;;;;;;;15.12;66.00;99509.31;4863042;28;98898;-66
2021/11/01 21:44:54;;;;;;;;;;;;;;;15.12;65.95;99506.59;4869139;28;98823;-66
2021/11/01 21:47:20;;;;;;;;;;;;;;;15.11;66.13;99510.44;4865025;28;116266;-66
2021/11/01 21:49:46;;;;;;;;;;;;;;;15.10;65.84;99506.94;4865006;28;99097;-58
2021/11/01 21:52:14;;;;;;;;;;;;;;;15.10;66.28;99496.06;4864176;28;112351;-58
2021/11/01 21:54:44;;;;;;;;;;;;;;;15.09;66.22;99496.38;4864722;28;99108;-66
2021/11/01 21:57:19;;;;;;;;;;;;;;;15.10;65.74;99503.44;4864566;28;98084;-66
2021/11/01 22:23:58;;;;;;;;;;;;;;;14.92;66.26;99478.19;4881042;28;98055;-66
2021/11/01 22:32:21;;;;;;;;;;;;;;;14.87;66.23;99465.59;4878756;28;99061;-66
2021/11/01 22:38:14;;;;;;;;;;;;;;;14.86;66.04;99461.28;4883242;28;97949;-58
2021/11/01 22:40:35;;;;;;;;;;;;;;;14.84;66.05;99462.72;4882465;28;98005;-66
2021/11/01 22:45:56;;;;;;;;;;;;;;;14.81;65.92;99447.88;4880085;28;98876;-67
2021/11/01 22:48:41;;;;;;;;;;;;;;;14.80;66.06;99442.78;4864030;28;98005;-67
2021/11/01 22:59:12;;;;;;;;;;;;;;;14.78;66.34;99453.16;4859174;28;99269;-66
2021/11/01 23:01:40;;;;;;;;;;;;;;;14.76;66.50;99444.53;4883323;28;98086;-66
2021/11/01 23:04:22;;;;;;;;;;;;;;;14.73;66.31;99448.66;4880439;28;98893;-58
2021/11/01 23:31:32;;;;;;;;;;;;;;;14.69;66.35;99404.31;4881213;28;98170;-59
2021/11/01 23:34:07;;;;;;;;;;;;;;;14.69;66.48;99407.81;4881720;28;97854;-67
2021/11/01 23:36:33;;;;;;;;;;;;;;;14.69;66.34;99404.31;4882919;28;98615;-66
2021/11/01 23:39:00;;;;;;;;;;;;;;;14.69;66.19;99405.13;4876931;28;110341;-66
2021/11/01 23:41:26;;;;;;;;;;;;;;;14.68;66.16;99403.53;4862820;28;97719;-58
2021/11/01 23:43:52;;;;;;;;;;;;;;;14.68;66.61;99402.72;4862470;28;118774;-66
2021/11/01 23:46:18;;;;;;;;;;;;;;;14.67;66.43;99398.44;4867452;28;98679;-58
2021/11/01 23:48:44;;;;;;;;;;;;;;;14.67;66.48;99387.59;4844751;28;99583;-66
2021/11/01 23:51:11;;;;;;;;;;;;;;;14.67;66.26;99387.59;4844877;28;99210;-58
2021/11/01 23:53:42;;;;;;;;;;;;;;;14.65;66.32;99382.47;4862753;28;97878;-58
2021/11/01 23:56:09;;;;;;;;;;;;;;;14.65;66.19;99379.75;4864176;28;98783;-58
2021/11/01 23:58:35;;;;;;;;;;;;;;;14.65;66.59;99381.66;4862349;28;107846;-58
